createdAt,value
2022-11-08T00:00:41.484Z,100639.91
2022-11-08T00:03:09.391Z,100645.19
2022-11-08T00:05:54.678Z,100640.75
2022-11-08T00:08:41.236Z,100642.56
2022-11-08T00:11:26.550Z,100634.59
2022-11-08T00:14:00.331Z,100642.56
2022-11-08T00:16:28.409Z,100646.06
2022-11-08T00:18:56.300Z,100648.75
2022-11-08T00:21:24.017Z,100645.22
2022-11-08T00:23:53.179Z,100645.22
2022-11-08T00:26:20.904Z,100637.25
2022-11-08T00:28:48.706Z,100649.66
2022-11-08T00:31:16.514Z,100639.06
2022-11-08T00:33:44.253Z,100645.22
2022-11-08T00:36:12.036Z,100642.56
2022-11-08T00:38:43.039Z,100647.88
2022-11-08T00:41:12.228Z,100639.94
2022-11-08T00:43:40.151Z,100654.06
2022-11-08T00:46:07.874Z,100645.22
2022-11-08T00:48:35.675Z,100648.75
2022-11-08T00:51:04.001Z,100642.56
2022-11-08T00:53:31.809Z,100649.63
2022-11-08T00:56:00.441Z,100640.81
2022-11-08T00:58:30.160Z,100636.38
2022-11-08T01:00:59.055Z,100632.84
2022-11-08T01:03:27.813Z,100632.81
2022-11-08T01:05:55.954Z,100631.06
2022-11-08T01:08:24.743Z,100638.13
2022-11-08T01:10:53.175Z,100641.66
2022-11-08T01:13:21.419Z,100633.72
2022-11-08T01:15:50.662Z,100647.81
2022-11-08T01:18:19.251Z,100645.16
2022-11-08T01:20:50.133Z,100643.41
2022-11-08T01:23:19.482Z,100639.88
2022-11-08T01:25:48.838Z,100639.88
2022-11-08T01:28:17.355Z,100642.53
2022-11-08T01:30:46.132Z,100640.72
2022-11-08T01:33:16.235Z,100645.16
2022-11-08T01:35:46.199Z,100638.09
2022-11-08T01:38:14.207Z,100638.94
2022-11-08T01:40:46.390Z,100635.41
2022-11-08T01:43:39.711Z,100637.16
2022-11-08T01:46:41.317Z,100628.31
2022-11-08T01:49:21.947Z,100638.03
2022-11-08T01:51:55.617Z,100633.59
2022-11-08T01:54:29.034Z,100630.06
2022-11-08T01:56:58.859Z,100638.00
2022-11-08T01:59:27.084Z,100634.47
2022-11-08T02:01:56.155Z,100638.00
2022-11-08T02:04:25.662Z,100630.06
2022-11-08T02:06:53.899Z,100637.09
2022-11-08T02:09:21.976Z,100632.69
2022-11-08T02:11:50.792Z,100636.19
2022-11-08T02:14:18.912Z,100637.94
2022-11-08T02:16:47.362Z,100628.25
2022-11-08T02:19:21.680Z,100629.09
2022-11-08T02:21:56.281Z,100625.59
2022-11-08T02:24:25.493Z,100624.69
2022-11-08T02:26:55.983Z,100625.59
2022-11-08T02:29:26.429Z,100629.97
2022-11-08T02:31:54.927Z,100629.13
2022-11-08T02:34:26.756Z,100628.25
2022-11-08T02:36:55.006Z,100626.47
2022-11-08T02:39:22.800Z,100625.59
2022-11-08T02:41:52.332Z,100621.19
2022-11-08T02:44:20.177Z,100612.34
2022-11-08T02:46:47.949Z,100614.09
2022-11-08T02:49:15.784Z,100610.56
2022-11-08T02:51:43.559Z,100614.09
2022-11-08T02:54:11.377Z,100612.31
2022-11-08T02:56:39.202Z,100607.03
2022-11-08T02:59:08.353Z,100607.91
2022-11-08T03:01:36.275Z,100614.94
2022-11-08T03:04:04.208Z,100615.84
2022-11-08T03:06:32.053Z,100613.19
2022-11-08T03:08:59.857Z,100614.06
2022-11-08T03:11:27.619Z,100616.66
2022-11-08T03:13:55.359Z,100617.53
2022-11-08T03:16:24.681Z,100611.34
2022-11-08T03:18:52.548Z,100614.00
2022-11-08T03:21:20.396Z,100618.41
2022-11-08T03:23:48.201Z,100614.88
2022-11-08T03:26:15.998Z,100623.69
2022-11-08T03:28:43.849Z,100614.00
2022-11-08T03:31:11.610Z,100629.84
2022-11-08T03:33:40.726Z,100621.88
2022-11-08T03:36:09.116Z,100624.50
2022-11-08T03:38:36.854Z,100623.59
2022-11-08T03:41:04.631Z,100623.56
2022-11-08T03:43:32.490Z,100616.50
2022-11-08T03:46:00.304Z,100626.19
2022-11-08T03:48:28.109Z,100618.22
2022-11-08T03:50:57.467Z,100621.75
2022-11-08T03:53:25.299Z,100621.72
2022-11-08T03:55:53.098Z,100612.88
2022-11-08T03:58:21.094Z,100615.50
2022-11-08T04:00:49.156Z,100611.06
2022-11-08T04:03:16.879Z,100609.25
2022-11-08T04:05:44.784Z,100616.28
2022-11-08T04:08:13.878Z,100626.84
2022-11-08T04:10:42.018Z,100618.00
2022-11-08T04:13:27.737Z,100619.78
2022-11-08T04:15:57.311Z,100615.34
2022-11-08T04:18:42.722Z,100616.25
2022-11-08T04:21:22.963Z,100610.94
2022-11-08T04:23:53.367Z,100610.06
2022-11-08T04:26:22.583Z,100603.88
2022-11-08T04:28:50.409Z,100595.94
2022-11-08T04:31:20.735Z,100595.94
2022-11-08T04:33:48.524Z,100595.97
2022-11-08T04:36:17.877Z,100600.41
2022-11-08T04:38:49.460Z,100602.13
2022-11-08T04:41:20.429Z,100594.19
2022-11-08T04:43:49.079Z,100593.34
2022-11-08T04:46:19.453Z,100585.41
2022-11-08T04:48:47.729Z,100588.06
2022-11-08T04:51:17.212Z,100581.88
2022-11-08T04:53:45.095Z,100574.84
2022-11-08T04:56:14.605Z,100585.41
2022-11-08T04:58:45.944Z,100581.88
2022-11-08T05:01:16.038Z,100578.34
2022-11-08T05:03:44.339Z,100588.06
2022-11-08T05:06:13.680Z,100583.63
2022-11-08T05:08:41.695Z,100587.16
2022-11-08T05:11:11.792Z,100581.91
2022-11-08T05:13:39.734Z,100584.50
2022-11-08T05:16:11.652Z,100585.34
2022-11-08T05:18:41.852Z,100602.09
2022-11-08T05:21:29.692Z,100596.75
2022-11-08T05:23:57.751Z,100583.50
2022-11-08T05:26:26.118Z,100590.53
2022-11-08T05:28:54.233Z,100587.88
2022-11-08T05:31:23.330Z,100595.78
2022-11-08T05:33:52.868Z,100592.19
2022-11-08T05:36:21.092Z,100587.75
2022-11-08T05:38:49.051Z,100577.16
2022-11-08T05:41:19.526Z,100587.75
2022-11-08T05:43:50.311Z,100578.00
2022-11-08T05:46:19.551Z,100582.38
2022-11-08T05:48:49.752Z,100579.69
2022-11-08T05:51:18.955Z,100585.88
2022-11-08T05:53:48.756Z,100584.13
2022-11-08T05:56:17.540Z,100571.75
2022-11-08T05:58:45.588Z,100582.31
2022-11-08T06:01:14.720Z,100584.09
2022-11-08T06:03:42.546Z,100584.97
2022-11-08T06:06:13.922Z,100581.44
2022-11-08T06:08:44.969Z,100580.56
2022-11-08T06:11:17.328Z,100587.56
2022-11-08T06:13:45.297Z,100593.75
2022-11-08T06:16:16.323Z,100593.72
2022-11-08T06:18:44.134Z,100591.06
2022-11-08T06:21:16.041Z,100591.06
2022-11-08T06:23:44.137Z,100599.88
2022-11-08T06:26:11.893Z,100608.69
2022-11-08T06:28:39.736Z,100603.38
2022-11-08T06:31:07.591Z,100597.22
2022-11-08T06:33:35.424Z,100601.63
2022-11-08T06:36:03.261Z,100597.22
2022-11-08T06:38:32.429Z,100601.63
2022-11-08T06:41:00.759Z,100600.75
2022-11-08T06:43:29.027Z,100594.59
2022-11-08T06:46:00.278Z,100593.66
2022-11-08T06:48:32.415Z,100598.94
2022-11-08T06:51:03.302Z,100598.00
2022-11-08T06:53:33.141Z,100601.53
2022-11-08T06:56:00.926Z,100604.16
2022-11-08T06:58:28.822Z,100605.91
2022-11-08T07:00:56.795Z,100605.88
2022-11-08T07:03:24.534Z,100608.50
2022-11-08T07:05:52.360Z,100596.16
2022-11-08T07:08:23.509Z,100605.81
2022-11-08T07:10:53.352Z,100604.06
2022-11-08T07:13:21.840Z,100592.63
2022-11-08T07:15:49.957Z,100587.38
2022-11-08T07:18:19.737Z,100590.94
2022-11-08T07:20:48.270Z,100590.09
2022-11-08T07:23:16.133Z,100591.00
2022-11-08T07:25:43.916Z,100591.97
2022-11-08T07:28:17.618Z,100588.50
2022-11-08T07:30:46.196Z,100593.81
2022-11-08T07:33:14.604Z,100593.81
2022-11-08T07:35:42.709Z,100590.34
2022-11-08T07:38:10.436Z,100601.78
2022-11-08T07:40:38.212Z,100595.66
2022-11-08T07:43:11.901Z,100600.13
2022-11-08T07:45:42.812Z,100593.94
2022-11-08T07:48:13.782Z,100590.50
2022-11-08T07:50:43.017Z,100587.91
2022-11-08T07:53:11.880Z,100580.06
2022-11-08T07:55:41.403Z,100571.28
2022-11-08T07:58:11.409Z,100576.63
2022-11-08T08:00:40.849Z,100575.81
2022-11-08T08:03:11.648Z,100575.00
2022-11-08T08:05:41.799Z,100575.97
2022-11-08T08:08:09.963Z,100579.56
2022-11-08T08:10:38.354Z,100578.78
2022-11-08T08:13:07.226Z,100577.09
2022-11-08T08:15:35.296Z,100578.88
2022-11-08T08:18:04.347Z,100579.78
2022-11-08T08:20:34.292Z,100583.34
2022-11-08T08:23:02.284Z,100591.31
2022-11-08T08:25:31.102Z,100577.19
2022-11-08T08:28:01.789Z,100576.28
2022-11-08T08:30:31.461Z,100571.03
2022-11-08T08:33:30.772Z,100577.19
2022-11-08T08:35:55.080Z,100575.44
2022-11-08T08:38:23.408Z,100568.38
2022-11-08T08:40:52.147Z,100562.16
2022-11-08T08:43:20.478Z,100565.69
2022-11-08T08:45:49.065Z,100563.00
2022-11-08T08:48:17.207Z,100565.66
2022-11-08T08:50:44.938Z,100564.75
2022-11-08T08:53:14.172Z,100555.84
2022-11-08T08:55:42.507Z,100563.75
2022-11-08T08:58:11.430Z,100562.84
2022-11-08T09:03:26.893Z,100560.06
2022-11-08T09:05:54.694Z,100552.91
2022-11-08T09:08:24.727Z,100551.00
2022-11-08T09:10:54.763Z,100549.06
2022-11-08T09:13:23.099Z,100543.59
2022-11-08T09:15:51.665Z,100539.88
2022-11-08T09:18:19.572Z,100542.44
2022-11-08T09:20:47.568Z,100546.78
2022-11-08T09:23:17.920Z,100540.50
2022-11-08T09:25:47.461Z,100533.31
2022-11-08T09:28:15.265Z,100524.34
2022-11-08T09:30:43.069Z,100525.09
2022-11-08T09:33:10.913Z,100529.50
2022-11-08T09:35:38.788Z,100527.66
2022-11-08T09:38:07.437Z,100528.47
2022-11-08T09:40:39.991Z,100535.44
2022-11-08T09:43:30.164Z,100538.03
2022-11-08T09:45:58.206Z,100528.38
2022-11-08T09:48:30.012Z,100529.34
2022-11-08T09:51:00.115Z,100531.16
2022-11-08T09:53:35.829Z,100529.38
2022-11-08T09:56:12.504Z,100523.97
2022-11-08T09:58:48.478Z,100520.31
2022-11-08T10:01:16.284Z,100518.41
2022-11-08T10:03:50.926Z,100512.91
2022-11-08T10:06:42.664Z,100511.84
2022-11-08T10:09:25.319Z,100511.69
2022-11-08T10:12:10.354Z,100504.47
2022-11-08T10:14:54.151Z,100514.13
2022-11-08T10:17:35.874Z,100493.59
2022-11-08T10:20:20.512Z,100490.81
2022-11-08T10:22:54.419Z,100491.50
2022-11-08T10:25:26.387Z,100479.88
2022-11-08T10:27:57.400Z,100480.56
2022-11-08T10:30:34.554Z,100481.34
2022-11-08T10:33:03.871Z,100475.88
2022-11-08T10:35:37.244Z,100460.56
2022-11-08T10:38:16.453Z,100461.22
2022-11-08T10:40:49.143Z,100476.09
2022-11-08T10:43:23.751Z,100463.53
2022-11-08T10:45:53.213Z,100458.13
2022-11-08T10:48:21.204Z,100452.66
2022-11-08T10:50:51.507Z,100449.03
2022-11-08T10:53:26.447Z,100448.09
2022-11-08T10:56:00.672Z,100448.97
2022-11-08T10:58:33.844Z,100450.75
2022-11-08T11:01:06.554Z,100452.53
2022-11-08T11:03:34.769Z,100443.53
2022-11-08T11:06:04.681Z,100453.28
2022-11-08T11:08:32.835Z,100441.63
2022-11-08T11:11:23.650Z,100438.94
2022-11-08T11:14:07.221Z,100426.34
2022-11-08T11:16:37.751Z,100420.97
2022-11-08T11:19:06.970Z,100424.50
2022-11-08T11:21:40.369Z,100425.28
2022-11-08T11:24:12.626Z,100412.66
2022-11-08T11:26:46.511Z,100424.09
2022-11-08T11:29:25.024Z,100420.44
2022-11-08T11:31:55.565Z,100412.31
2022-11-08T11:34:37.807Z,100410.50
2022-11-08T11:37:15.715Z,100411.31
2022-11-08T11:39:53.315Z,100397.81
2022-11-08T11:45:19.860Z,100404.66
2022-11-08T11:47:53.518Z,100405.38
2022-11-08T11:50:30.689Z,100404.31
2022-11-08T11:52:59.971Z,100392.69
2022-11-08T11:55:35.705Z,100377.53
2022-11-08T11:58:17.429Z,100365.72
2022-11-08T12:00:57.455Z,100365.41
2022-11-08T12:03:48.838Z,100368.53
2022-11-08T12:06:32.398Z,100357.38
2022-11-08T12:09:14.110Z,100370.31
2022-11-08T12:11:54.173Z,100363.75
2022-11-08T12:14:37.788Z,100374.31
2022-11-08T12:17:24.511Z,100368.75
2022-11-08T12:20:07.785Z,100371.25
2022-11-08T12:22:52.330Z,100369.09
2022-11-08T12:25:26.015Z,100379.56
2022-11-08T12:27:58.135Z,100359.69
2022-11-08T12:30:33.629Z,100357.63
2022-11-08T12:33:17.362Z,100353.72
2022-11-08T12:35:59.349Z,100344.50
2022-11-08T12:38:35.194Z,100348.88
2022-11-08T12:41:14.677Z,100354.25
2022-11-08T12:43:59.368Z,100342.66
2022-11-08T12:46:30.035Z,100347.16
2022-11-08T12:49:13.865Z,100348.06
2022-11-08T12:51:57.318Z,100336.31
2022-11-08T12:54:31.213Z,100341.84
2022-11-08T12:57:03.377Z,100341.16
2022-11-08T12:59:38.023Z,100326.97
2022-11-08T13:02:11.754Z,100339.38
2022-11-08T13:04:44.944Z,100328.56
2022-11-08T13:07:25.792Z,100331.94
2022-11-08T13:09:59.440Z,100320.25
2022-11-08T13:12:38.928Z,100315.56
2022-11-08T13:15:17.283Z,100307.22
2022-11-08T13:18:33.698Z,100305.31
2022-11-08T13:21:01.813Z,100299.28
2022-11-08T13:23:33.120Z,100316.63
2022-11-08T13:26:22.088Z,100311.63
2022-11-08T13:28:50.822Z,100298.69
2022-11-08T13:31:23.428Z,100299.97
2022-11-08T13:34:15.727Z,100305.69
2022-11-08T13:36:55.815Z,100302.44
2022-11-08T13:40:00.345Z,100302.88
2022-11-08T13:42:40.393Z,100287.16
2022-11-08T13:45:28.459Z,100283.03
2022-11-08T13:48:02.861Z,100294.81
2022-11-08T13:50:52.808Z,100284.38
2022-11-08T13:53:45.900Z,100285.50
2022-11-08T13:56:45.952Z,100289.31
2022-11-08T13:59:50.719Z,100282.25
2022-11-08T14:02:41.190Z,100278.78
2022-11-08T14:05:29.697Z,100274.47
2022-11-08T14:08:29.217Z,100276.34
2022-11-08T14:11:15.976Z,100264.84
2022-11-08T14:14:11.296Z,100269.34
2022-11-08T14:16:48.244Z,100267.69
2022-11-08T14:19:22.353Z,100266.00
2022-11-08T14:21:52.728Z,100269.66
2022-11-08T14:24:26.702Z,100265.31
2022-11-08T14:26:55.652Z,100264.56
2022-11-08T14:29:25.967Z,100263.75
2022-11-08T14:32:05.560Z,100264.78
2022-11-08T14:34:35.632Z,100258.66
2022-11-08T14:37:05.485Z,100259.63
2022-11-08T14:39:35.675Z,100261.53
2022-11-08T14:42:06.149Z,100261.66
2022-11-08T14:44:36.053Z,100267.97
2022-11-08T14:47:05.421Z,100265.38
2022-11-08T14:49:35.812Z,100258.34
2022-11-08T14:52:10.895Z,100254.00
2022-11-08T14:54:40.857Z,100259.44
2022-11-08T14:57:31.493Z,100243.59
2022-11-08T15:00:03.349Z,100260.66
2022-11-08T15:02:31.481Z,100264.38
2022-11-08T15:04:59.337Z,100255.59
2022-11-08T15:07:27.699Z,100246.78
2022-11-08T15:09:56.281Z,100252.16
2022-11-08T15:12:26.079Z,100259.28
2022-11-08T15:14:58.597Z,100246.81
2022-11-08T15:17:37.372Z,100240.44
2022-11-08T15:20:08.626Z,100237.72
2022-11-08T15:22:37.354Z,100237.66
2022-11-08T15:25:23.848Z,100242.97
2022-11-08T15:27:54.504Z,100248.34
2022-11-08T15:30:32.632Z,100259.09
2022-11-08T15:33:03.289Z,100232.41
2022-11-08T15:35:36.632Z,100228.16
2022-11-08T15:38:06.341Z,100234.56
2022-11-08T15:40:35.988Z,100239.97
2022-11-08T15:43:04.565Z,100232.97
2022-11-08T15:45:35.636Z,100239.28
2022-11-08T15:48:22.626Z,100228.72
2022-11-08T15:50:51.087Z,100239.38
2022-11-08T15:53:19.299Z,100232.34
2022-11-08T15:55:50.283Z,100225.31
2022-11-08T15:58:22.478Z,100228.09
2022-11-08T16:00:51.015Z,100236.28
2022-11-08T16:03:20.261Z,100240.78
2022-11-08T16:05:47.989Z,100230.16
2022-11-08T16:08:20.306Z,100228.38
2022-11-08T16:10:51.284Z,100212.38
2022-11-08T16:13:23.069Z,100214.91
2022-11-08T16:15:50.836Z,100215.72
2022-11-08T16:18:20.723Z,100213.03
2022-11-08T16:20:48.895Z,100221.06
2022-11-08T16:23:17.013Z,100215.69
2022-11-08T16:25:47.082Z,100210.44
2022-11-08T16:28:20.997Z,100217.50
2022-11-08T16:30:49.002Z,100211.34
2022-11-08T16:33:22.174Z,100223.84
2022-11-08T16:35:50.426Z,100217.72
2022-11-08T16:38:23.557Z,100220.50
2022-11-08T16:40:51.255Z,100224.16
2022-11-08T16:43:18.940Z,100228.75
2022-11-08T16:48:38.185Z,100230.97
2022-11-08T16:51:08.052Z,100232.00
2022-11-08T16:53:36.744Z,100231.25
2022-11-08T16:56:04.745Z,100235.84
2022-11-08T16:58:32.416Z,100243.16
2022-11-08T17:01:00.306Z,100250.38
2022-11-08T17:03:29.665Z,100255.81
2022-11-08T17:05:59.402Z,100239.97
2022-11-08T17:08:27.476Z,100245.38
2022-11-08T17:10:55.568Z,100241.06
2022-11-08T17:13:23.884Z,100230.50
2022-11-08T17:15:52.274Z,100234.19
2022-11-08T17:18:21.761Z,100231.63
2022-11-08T17:20:51.561Z,100229.94
2022-11-08T17:23:22.284Z,100222.91
2022-11-08T17:25:50.048Z,100227.44
2022-11-08T17:28:18.165Z,100228.44
2022-11-08T17:30:46.123Z,100236.44
2022-11-08T17:33:14.304Z,100243.59
2022-11-08T17:35:44.375Z,100240.06
2022-11-08T17:38:12.740Z,100240.09
2022-11-08T17:40:42.636Z,100236.53
2022-11-08T17:43:10.636Z,100246.31
2022-11-08T17:45:38.399Z,100245.47
2022-11-08T17:48:06.367Z,100248.19
2022-11-08T17:50:34.131Z,100254.44
2022-11-08T17:53:01.910Z,100258.91
2022-11-08T17:55:29.712Z,100250.03
2022-11-08T17:57:58.819Z,100244.69
2022-11-08T18:00:26.824Z,100248.13
2022-11-08T18:02:54.712Z,100248.09
2022-11-08T18:05:22.496Z,100253.38
2022-11-08T18:07:50.385Z,100252.41
2022-11-08T18:10:18.234Z,100256.78
2022-11-08T18:12:46.071Z,100257.63
2022-11-08T18:15:15.201Z,100266.47
2022-11-08T18:17:42.980Z,100269.97
2022-11-08T18:20:11.563Z,100261.97
2022-11-08T18:22:39.370Z,100266.38
2022-11-08T18:25:07.357Z,100260.19
2022-11-08T18:27:35.104Z,100260.25
2022-11-08T18:30:02.848Z,100265.66
2022-11-08T18:32:31.936Z,100270.09
2022-11-08T18:34:59.984Z,100267.53
2022-11-08T18:37:27.747Z,100264.03
2022-11-08T18:39:55.491Z,100264.09
2022-11-08T18:42:23.353Z,100256.16
2022-11-08T18:44:51.223Z,100261.47
2022-11-08T18:47:19.032Z,100253.50
2022-11-08T18:49:48.583Z,100254.44
2022-11-08T18:52:16.420Z,100261.50
2022-11-08T18:54:45.314Z,100260.66
2022-11-08T18:57:13.071Z,100249.13
2022-11-08T18:59:40.799Z,100234.06
2022-11-08T19:02:10.438Z,100235.00
2022-11-08T19:04:38.402Z,100227.94
2022-11-08T19:07:07.592Z,100228.00
2022-11-08T19:09:35.424Z,100237.75
2022-11-08T19:12:06.000Z,100231.59
2022-11-08T19:14:35.323Z,100240.44
2022-11-08T19:17:03.254Z,100249.34
2022-11-08T19:19:31.111Z,100250.25
2022-11-08T19:21:58.936Z,100236.06
2022-11-08T19:24:28.281Z,100246.72
2022-11-08T19:26:56.051Z,100253.78
2022-11-08T19:29:23.825Z,100259.13
2022-11-08T19:31:51.572Z,100269.78
2022-11-08T19:34:19.345Z,100261.84
2022-11-08T19:36:51.285Z,100260.06
2022-11-08T19:39:22.853Z,100266.25
2022-11-08T19:41:51.940Z,100268.03
2022-11-08T19:44:20.655Z,100268.06
2022-11-08T19:46:48.820Z,100276.03
2022-11-08T19:49:16.666Z,100270.72
2022-11-08T19:51:44.679Z,100268.06
2022-11-08T19:54:14.579Z,100274.25
2022-11-08T19:59:31.569Z,100261.94
2022-11-08T20:02:00.008Z,100263.75
2022-11-08T20:04:28.145Z,100261.09
2022-11-08T20:06:56.402Z,100255.81
2022-11-08T20:09:29.972Z,100265.59
2022-11-08T20:11:58.497Z,100265.63
2022-11-08T20:14:26.313Z,100275.44
2022-11-08T20:16:55.673Z,100273.66
2022-11-08T20:19:23.753Z,100264.84
2022-11-08T20:21:51.599Z,100269.34
2022-11-08T20:24:19.660Z,100262.25
2022-11-08T20:26:47.481Z,100273.84
2022-11-08T20:29:15.547Z,100270.34
2022-11-08T20:31:43.555Z,100266.81
2022-11-08T20:34:13.353Z,100270.38
2022-11-08T20:36:43.978Z,100266.88
2022-11-08T20:39:12.899Z,100251.84
2022-11-08T20:41:41.185Z,100256.31
2022-11-08T20:44:10.389Z,100261.63
2022-11-08T20:46:38.763Z,100260.75
2022-11-08T20:49:07.309Z,100257.22
2022-11-08T20:51:36.473Z,100263.41
2022-11-08T20:54:04.618Z,100258.13
2022-11-08T20:56:32.498Z,100257.25
2022-11-08T20:59:00.270Z,100265.22
2022-11-08T21:01:29.802Z,100259.03
2022-11-08T21:03:57.924Z,100258.13
2022-11-08T21:06:27.728Z,100260.81
2022-11-08T21:09:00.699Z,100257.28
2022-11-08T21:11:31.122Z,100255.47
2022-11-08T21:13:59.196Z,100258.13
2022-11-08T21:16:30.471Z,100259.00
2022-11-08T21:19:00.094Z,100256.28
2022-11-08T21:21:28.004Z,100242.94
2022-11-08T21:23:57.501Z,100241.97
2022-11-08T21:26:25.586Z,100257.00
2022-11-08T21:28:53.358Z,100261.34
2022-11-08T21:31:21.291Z,100255.94
2022-11-08T21:33:49.037Z,100246.13
2022-11-08T21:36:17.780Z,100247.81
2022-11-08T21:38:45.989Z,100244.25
2022-11-08T21:41:15.400Z,100250.44
2022-11-08T21:43:45.170Z,100250.44
2022-11-08T21:46:18.404Z,100247.78
2022-11-08T21:48:46.278Z,100247.78
2022-11-08T21:51:14.534Z,100244.25
2022-11-08T21:53:52.395Z,100248.69
2022-11-08T21:56:23.770Z,100243.44
2022-11-08T21:58:51.592Z,100245.19
2022-11-08T22:01:20.464Z,100240.72
2022-11-08T22:03:49.186Z,100244.28
2022-11-08T22:06:17.069Z,100242.47
2022-11-08T22:08:44.870Z,100252.22
2022-11-08T22:11:12.639Z,100253.09
2022-11-08T22:13:41.728Z,100235.31
2022-11-08T22:16:09.483Z,100242.34
2022-11-08T22:21:41.380Z,100238.78
2022-11-08T22:24:11.258Z,100246.81
2022-11-08T22:26:39.211Z,100253.94
2022-11-08T22:29:09.188Z,100255.75
2022-11-08T22:31:37.775Z,100259.28
2022-11-08T22:34:07.918Z,100248.66
2022-11-08T22:36:37.802Z,100246.94
2022-11-08T22:39:10.868Z,100252.31
2022-11-08T22:41:38.652Z,100256.78
2022-11-08T22:44:11.650Z,100248.84
2022-11-08T22:46:40.502Z,100258.63
2022-11-08T22:49:08.487Z,100250.66
2022-11-08T22:51:36.216Z,100246.22
2022-11-08T22:54:04.311Z,100259.56
2022-11-08T22:56:32.097Z,100278.25
2022-11-08T22:58:59.888Z,100280.97
2022-11-08T23:01:29.048Z,100266.81
2022-11-08T23:03:56.912Z,100271.25
2022-11-08T23:06:24.664Z,100267.75
2022-11-08T23:08:52.439Z,100269.56
2022-11-08T23:11:37.628Z,100279.34
2022-11-08T23:14:22.956Z,100292.69
2022-11-08T23:16:52.031Z,100280.34
2022-11-08T23:19:39.374Z,100283.91
2022-11-08T23:22:28.099Z,100276.88
2022-11-08T23:24:55.884Z,100276.94
2022-11-08T23:27:42.136Z,100270.78
2022-11-08T23:30:30.932Z,100280.56
2022-11-08T23:32:59.980Z,100285.06
2022-11-08T23:35:27.927Z,100272.66
2022-11-08T23:37:56.073Z,100276.28
2022-11-08T23:40:55.800Z,100263.03
2022-11-08T23:43:41.022Z,100260.41
2022-11-08T23:46:10.221Z,100263.13
2022-11-08T23:48:40.090Z,100258.72
2022-11-08T23:51:08.776Z,100251.66
2022-11-08T23:53:37.742Z,100257.00
2022-11-08T23:56:06.197Z,100250.78
2022-11-08T23:58:34.610Z,100249.94
